Time;durP1;ratioP1;P1;durP2;ratioP2;P2;SDS_P1;SDS_P2;PMS_P1;PMS_P2;Temp;Humidity;BMP_temperature;BMP_pressure;BME280_temperature;BME280_humidity;BME280_pressure;Samples;Min_cycle;Max_cycle;Signal;HPM_P1;HPM_P2
2022/06/08 00:03:05;;;;;;;3.28;1.70;;;;;;;;;;10456433;28;20371;-72
2022/06/08 00:08:05;;;;;;;2.13;2.00;;;;;;;;;;10456007;28;20095;-74
2022/06/08 00:13:06;;;;;;;2.40;2.17;;;;;;;;;;10475333;28;20094;-73
2022/06/08 00:18:07;;;;;;;2.10;1.90;;;;;;;;;;10430883;28;20067;-72
2022/06/08 00:23:07;;;;;;;3.08;2.20;;;;;;;;;;10465503;28;20122;-70
2022/06/08 00:28:08;;;;;;;2.22;2.03;;;;;;;;;;10453750;28;20108;-74
2022/06/08 00:33:08;;;;;;;3.03;2.20;;;;;;;;;;10450271;28;20443;-72
2022/06/08 00:38:10;;;;;;;3.67;2.10;;;;;;;;;;10433173;28;20044;-71
2022/06/08 00:43:10;;;;;;;2.80;2.60;;;;;;;;;;10466693;28;20041;-72
2022/06/08 00:48:11;;;;;;;2.22;2.03;;;;;;;;;;10456632;28;20094;-73
2022/06/08 00:53:13;;;;;;;2.85;2.55;;;;;;;;;;10446117;28;20179;-73
2022/06/08 00:58:16;;;;;;;2.80;2.50;;;;;;;;;;10453423;28;20040;-74
2022/06/08 01:03:16;;;;;;;;;;;;;;;;;;10445701;28;20048;-72
2022/06/08 01:08:26;;;;;;;3.92;2.67;;;;;;;;;;10450746;28;19981;-71
2022/06/08 01:13:29;;;;;;;3.03;2.20;;;;;;;;;;10431491;28;20758;-72
2022/06/08 01:18:31;;;;;;;3.10;2.67;;;;;;;;;;10461498;28;20090;-72
2022/06/08 01:23:33;;;;;;;3.50;2.30;;;;;;;;;;10466770;28;20051;-73
2022/06/08 01:28:43;;;;;;;4.10;2.70;;;;;;;;;;10463616;28;20142;-72
2022/06/08 01:33:44;;;;;;;2.85;2.65;;;;;;;;;;10468727;28;20424;-73
2022/06/08 01:38:59;;;;;;;2.80;2.47;;;;;;;;;;10463333;28;20049;-73
2022/06/08 01:44:13;;;;;;;3.10;2.60;;;;;;;;;;10467624;28;20051;-71
2022/06/08 01:49:26;;;;;;;2.50;2.30;;;;;;;;;;10467323;28;20060;-74
2022/06/08 01:54:46;;;;;;;3.58;3.00;;;;;;;;;;10435827;28;20125;-73
2022/06/08 01:59:47;;;;;;;2.92;2.70;;;;;;;;;;10454929;28;20049;-72
2022/06/08 02:05:06;;;;;;;3.25;2.95;;;;;;;;;;10462705;28;20444;-73
2022/06/08 02:10:16;;;;;;;2.90;2.60;;;;;;;;;;10465110;28;20529;-72
2022/06/08 02:15:34;;;;;;;4.20;2.85;;;;;;;;;;10458808;28;20139;-72
2022/06/08 02:20:42;;;;;;;3.20;2.90;;;;;;;;;;10452860;28;20813;-71
2022/06/08 02:25:50;;;;;;;3.35;2.90;;;;;;;;;;10455301;28;20047;-72
2022/06/08 02:31:04;;;;;;;3.28;2.97;;;;;;;;;;10455019;28;20088;-71
2022/06/08 02:36:04;;;;;;;;;;;;;;;;;;10459957;28;20214;-71
2022/06/08 02:41:07;;;;;;;3.87;3.47;;;;;;;;;;10459885;28;19917;-71
2022/06/08 02:46:11;;;;;;;3.97;3.40;;;;;;;;;;10464831;28;20139;-73
2022/06/08 02:51:44;;;;;;;3.88;3.58;;;;;;;;;;10466613;28;20075;-73
2022/06/08 02:56:55;;;;;;;4.03;3.40;;;;;;;;;;10435878;28;20559;-72
2022/06/08 03:02:06;;;;;;;3.85;3.45;;;;;;;;;;10468882;28;20028;-71
2022/06/08 03:07:14;;;;;;;3.70;3.40;;;;;;;;;;10454955;28;20041;-73
2022/06/08 03:12:19;;;;;;;3.55;3.25;;;;;;;;;;10460917;28;20088;-71
2022/06/08 03:17:24;;;;;;;3.33;3.00;;;;;;;;;;10450473;28;20063;-71
2022/06/08 03:22:24;;;;;;;3.45;3.13;;;;;;;;;;10455962;28;20040;-72
2022/06/08 03:27:25;;;;;;;3.72;3.33;;;;;;;;;;10457805;28;20044;-73
2022/06/08 03:32:29;;;;;;;4.60;3.33;;;;;;;;;;10451525;28;20136;-72
2022/06/08 03:37:29;;;;;;;3.60;3.30;;;;;;;;;;10451417;28;20045;-72
2022/06/08 03:42:32;;;;;;;4.32;3.17;;;;;;;;;;10449982;28;20558;-72
2022/06/08 03:47:36;;;;;;;5.03;3.10;;;;;;;;;;10470398;28;20056;-72
2022/06/08 03:52:40;;;;;;;4.47;3.17;;;;;;;;;;10472567;28;20049;-71
2022/06/08 03:57:44;;;;;;;3.58;3.25;;;;;;;;;;10464738;28;20140;-70
2022/06/08 04:02:47;;;;;;;3.72;3.35;;;;;;;;;;10452200;28;20072;-72
2022/06/08 04:07:56;;;;;;;4.38;3.63;;;;;;;;;;10450439;28;20042;-71
2022/06/08 04:12:57;;;;;;;3.60;3.30;;;;;;;;;;10442773;28;20049;-71
2022/06/08 04:17:59;;;;;;;5.00;3.88;;;;;;;;;;10446346;28;20048;-71
2022/06/08 04:23:00;;;;;;;3.85;3.38;;;;;;;;;;10463340;28;20044;-72
2022/06/08 04:28:03;;;;;;;4.15;3.47;;;;;;;;;;10460637;28;20047;-72
2022/06/08 04:33:04;;;;;;;4.65;3.85;;;;;;;;;;10460451;28;20044;-72
2022/06/08 04:38:06;;;;;;;4.75;3.10;;;;;;;;;;10470348;28;20039;-72
2022/06/08 04:43:08;;;;;;;3.70;3.40;;;;;;;;;;10450969;28;20110;-74
2022/06/08 04:48:09;;;;;;;3.47;3.17;;;;;;;;;;10427972;28;20033;-71
2022/06/08 04:53:11;;;;;;;6.13;4.00;;;;;;;;;;10454874;28;20055;-70
2022/06/08 04:58:14;;;;;;;5.75;3.55;;;;;;;;;;10449785;28;20051;-73
2022/06/08 05:03:17;;;;;;;4.53;4.13;;;;;;;;;;10422831;28;20059;-72
2022/06/08 05:08:20;;;;;;;4.60;3.40;;;;;;;;;;10444029;28;20037;-71
2022/06/08 05:13:23;;;;;;;4.95;3.70;;;;;;;;;;10444051;28;20163;-73
2022/06/08 05:18:31;;;;;;;5.32;3.40;;;;;;;;;;10435919;28;20049;-71
2022/06/08 05:23:36;;;;;;;4.32;3.40;;;;;;;;;;10455735;28;20037;-72
2022/06/08 05:28:43;;;;;;;4.75;3.20;;;;;;;;;;10429262;28;20091;-71
2022/06/08 05:33:46;;;;;;;4.88;3.60;;;;;;;;;;10445297;28;20380;-72
2022/06/08 05:38:54;;;;;;;4.07;3.08;;;;;;;;;;10414651;28;20045;-73
2022/06/08 05:44:00;;;;;;;7.88;3.97;;;;;;;;;;10448346;28;20131;-73
2022/06/08 05:49:01;;;;;;;5.38;2.97;;;;;;;;;;10452520;28;20049;-71
2022/06/08 05:54:04;;;;;;;5.45;3.38;;;;;;;;;;10453114;28;20139;-73
2022/06/08 05:59:05;;;;;;;8.32;3.63;;;;;;;;;;10448362;28;20053;-72
2022/06/08 06:04:08;;;;;;;3.28;2.85;;;;;;;;;;10449638;28;20075;-74
2022/06/08 06:09:10;;;;;;;4.40;3.00;;;;;;;;;;10459109;28;20124;-70
2022/06/08 06:14:11;;;;;;;3.38;2.80;;;;;;;;;;10437005;28;20037;-73
2022/06/08 06:19:15;;;;;;;3.03;2.72;;;;;;;;;;10451278;28;20041;-72
2022/06/08 06:24:36;;;;;;;3.03;2.60;;;;;;;;;;10472923;28;20152;-73
2022/06/08 06:29:49;;;;;;;2.92;2.58;;;;;;;;;;10453195;28;20106;-72
2022/06/08 06:35:05;;;;;;;4.47;2.55;;;;;;;;;;10458497;28;20083;-75
2022/06/08 06:40:07;;;;;;;2.85;2.60;;;;;;;;;;10453265;28;20124;-72
2022/06/08 06:45:07;;;;;;;2.67;2.40;;;;;;;;;;10459202;28;20095;-72
2022/06/08 06:50:15;;;;;;;3.63;2.63;;;;;;;;;;10461019;28;20052;-73
2022/06/08 06:55:20;;;;;;;3.28;2.60;;;;;;;;;;10461335;28;20106;-72
2022/06/08 07:00:20;;;;;;;4.03;2.53;;;;;;;;;;10449353;28;20052;-73
2022/06/08 07:05:23;;;;;;;3.17;2.88;;;;;;;;;;10458828;28;20056;-74
2022/06/08 07:10:24;;;;;;;5.13;2.55;;;;;;;;;;10443966;28;20168;-75
2022/06/08 07:15:26;;;;;;;3.58;2.38;;;;;;;;;;10461400;28;20045;-71
2022/06/08 07:20:27;;;;;;;;;;;;;;;;;;10448437;28;20056;-73
2022/06/08 07:25:28;;;;;;;3.30;2.50;;;;;;;;;;10434585;28;19917;-72
2022/06/08 07:30:29;;;;;;;4.25;2.60;;;;;;;;;;10430061;28;20048;-73
2022/06/08 07:35:29;;;;;;;3.37;2.33;;;;;;;;;;10469294;28;20487;-75
2022/06/08 07:40:30;;;;;;;7.00;2.80;;;;;;;;;;10456065;28;20268;-75
2022/06/08 07:45:31;;;;;;;3.20;2.60;;;;;;;;;;10455467;28;20052;-74
2022/06/08 07:50:31;;;;;;;3.20;2.40;;;;;;;;;;10476416;28;20060;-74
2022/06/08 07:55:32;;;;;;;4.07;2.53;;;;;;;;;;10470458;28;20422;-76
2022/06/08 08:00:33;;;;;;;5.03;2.80;;;;;;;;;;10455983;28;20052;-73
2022/06/08 08:05:33;;;;;;;4.30;2.13;;;;;;;;;;10454148;28;20364;-71
2022/06/08 08:10:33;;;;;;;3.60;2.40;;;;;;;;;;10465019;28;20291;-72
2022/06/08 08:15:34;;;;;;;4.93;3.43;;;;;;;;;;10475676;28;20385;-74
2022/06/08 08:20:34;;;;;;;2.17;1.92;;;;;;;;;;10471220;28;20151;-75
2022/06/08 08:25:35;;;;;;;3.40;2.10;;;;;;;;;;10481196;28;20041;-74
2022/06/08 08:30:36;;;;;;;2.75;2.30;;;;;;;;;;10469694;28;20049;-75
2022/06/08 08:35:36;;;;;;;3.20;2.20;;;;;;;;;;10482987;28;20044;-75
2022/06/08 08:40:44;;;;;;;3.47;2.00;;;;;;;;;;10457326;28;20048;-74
2022/06/08 08:45:59;;;;;;;3.17;2.05;;;;;;;;;;10459878;28;20344;-76
2022/06/08 08:51:11;;;;;;;3.15;2.03;;;;;;;;;;10466071;28;20112;-75
2022/06/08 08:56:17;;;;;;;5.30;3.60;;;;;;;;;;10458115;28;20334;-77
2022/06/08 09:01:24;;;;;;;2.72;2.10;;;;;;;;;;10481781;28;20067;-73
2022/06/08 09:06:27;;;;;;;2.47;1.80;;;;;;;;;;10440668;28;20044;-73
2022/06/08 09:11:36;;;;;;;2.22;1.60;;;;;;;;;;10444188;28;20060;-73
2022/06/08 09:16:41;;;;;;;2.90;1.63;;;;;;;;;;10454058;28;20060;-75
2022/06/08 09:21:41;;;;;;;3.42;1.70;;;;;;;;;;10456728;28;20040;-77
2022/06/08 09:26:42;;;;;;;1.80;1.70;;;;;;;;;;10461178;28;20067;-73
2022/06/08 09:31:45;;;;;;;2.95;2.30;;;;;;;;;;10473517;28;20048;-74
2022/06/08 09:37:02;;;;;;;2.03;1.67;;;;;;;;;;10467606;28;20403;-74
2022/06/08 09:42:11;;;;;;;3.15;1.50;;;;;;;;;;10448019;28;20056;-74
2022/06/08 09:52:46;;;;;;;3.63;1.85;;;;;;;;;;10442834;28;20080;-75
2022/06/08 09:57:46;;;;;;;2.83;1.63;;;;;;;;;;10453800;28;20496;-74
2022/06/08 10:02:52;;;;;;;2.33;1.50;;;;;;;;;;10459911;28;20049;-73
2022/06/08 10:07:59;;;;;;;2.25;1.33;;;;;;;;;;10469134;28;20441;-75
2022/06/08 10:13:09;;;;;;;5.45;2.67;;;;;;;;;;10456606;28;20049;-76
2022/06/08 10:18:13;;;;;;;2.28;1.67;;;;;;;;;;10480284;28;20045;-75
2022/06/08 10:23:25;;;;;;;3.83;2.40;;;;;;;;;;10480589;28;20087;-78
2022/06/08 10:28:25;;;;;;;3.90;2.00;;;;;;;;;;10480899;28;20041;-78
2022/06/08 10:33:45;;;;;;;4.10;1.75;;;;;;;;;;10483909;28;20143;-76
2022/06/08 10:38:47;;;;;;;2.30;1.60;;;;;;;;;;10484860;28;20094;-77
2022/06/08 10:43:49;;;;;;;2.55;1.42;;;;;;;;;;10485053;28;20053;-76
2022/06/08 10:48:51;;;;;;;3.80;1.83;;;;;;;;;;10507105;28;20045;-77
2022/06/08 10:59:16;;;;;;;2.67;1.23;;;;;;;;;;10498072;28;20526;-74
2022/06/08 11:04:32;;;;;;;2.78;1.20;;;;;;;;;;10497780;28;20051;-75
2022/06/08 11:09:32;;;;;;;2.00;1.60;;;;;;;;;;10474903;28;20427;-76
2022/06/08 11:14:48;;;;;;;2.10;1.17;;;;;;;;;;10480376;28;20057;-75
2022/06/08 11:19:54;;;;;;;3.15;1.20;;;;;;;;;;10452783;28;20044;-78
2022/06/08 11:24:55;;;;;;;1.65;1.10;;;;;;;;;;10490122;28;20032;-77
2022/06/08 11:30:00;;;;;;;2.07;1.40;;;;;;;;;;10460579;28;20131;-77
2022/06/08 11:35:06;;;;;;;2.30;1.30;;;;;;;;;;10464179;28;20076;-76
2022/06/08 11:40:12;;;;;;;2.33;1.17;;;;;;;;;;10489349;28;20112;-78
2022/06/08 11:45:20;;;;;;;3.10;1.58;;;;;;;;;;10487911;28;20093;-76
2022/06/08 11:50:23;;;;;;;2.55;1.48;;;;;;;;;;10447072;28;20064;-78
2022/06/08 11:55:27;;;;;;;2.47;1.10;;;;;;;;;;10433538;28;20045;-76
2022/06/08 12:00:36;;;;;;;2.45;1.20;;;;;;;;;;10473204;28;20044;-75
2022/06/08 12:05:36;;;;;;;1.60;1.10;;;;;;;;;;10467622;28;20050;-77
2022/06/08 12:10:39;;;;;;;3.33;1.90;;;;;;;;;;10482178;28;20056;-81
2022/06/08 12:15:39;;;;;;;3.38;1.00;;;;;;;;;;10469080;28;20051;-76
2022/06/08 12:20:40;;;;;;;1.05;0.93;;;;;;;;;;10481650;28;20117;-76
2022/06/08 12:25:41;;;;;;;1.40;1.08;;;;;;;;;;10471012;28;20058;-77
2022/06/08 12:30:55;;;;;;;2.10;1.40;;;;;;;;;;10462269;28;20540;-78
2022/06/08 12:36:19;;;;;;;3.05;1.20;;;;;;;;;;10467408;28;20060;-77
2022/06/08 12:41:19;;;;;;;2.70;1.40;;;;;;;;;;10479635;28;20156;-76
2022/06/08 12:46:22;;;;;;;2.37;1.00;;;;;;;;;;10485018;28;20120;-77
2022/06/08 12:51:25;;;;;;;1.95;1.33;;;;;;;;;;10476693;28;20444;-76
2022/06/08 12:56:26;;;;;;;5.80;4.78;;;;;;;;;;10479083;28;20662;-74
2022/06/08 13:01:31;;;;;;;3.67;1.13;;;;;;;;;;10493962;28;20056;-76
2022/06/08 13:06:33;;;;;;;1.45;1.15;;;;;;;;;;10527495;28;20055;-75
2022/06/08 13:11:34;;;;;;;2.53;1.15;;;;;;;;;;10515869;28;20736;-74
2022/06/08 13:16:35;;;;;;;2.55;1.20;;;;;;;;;;10485675;28;20040;-77
2022/06/08 13:21:35;;;;;;;3.22;1.05;;;;;;;;;;10469001;28;20025;-79
2022/06/08 13:26:37;;;;;;;2.38;1.10;;;;;;;;;;10525407;28;20040;-77
2022/06/08 13:31:38;;;;;;;2.13;1.00;;;;;;;;;;10524901;28;20117;-77
2022/06/08 13:36:41;;;;;;;1.98;1.13;;;;;;;;;;10424774;28;20045;-76
2022/06/08 13:41:43;;;;;;;1.98;1.10;;;;;;;;;;10491382;28;20068;-76
2022/06/08 13:46:44;;;;;;;3.47;1.23;;;;;;;;;;10505186;28;20053;-76
2022/06/08 13:51:44;;;;;;;2.60;1.20;;;;;;;;;;10503292;28;20357;-76
2022/06/08 13:56:45;;;;;;;2.80;1.20;;;;;;;;;;10516515;28;20130;-78
2022/06/08 14:01:46;;;;;;;1.60;0.90;;;;;;;;;;10484923;28;20415;-77
2022/06/08 14:17:27;;;;;;;1.55;0.90;;;;;;;;;;10467798;28;20052;-73
2022/06/08 14:22:33;;;;;;;1.45;1.10;;;;;;;;;;10460018;28;20041;-75
2022/06/08 14:27:34;;;;;;;3.03;1.02;;;;;;;;;;10470918;28;20083;-73
2022/06/08 14:32:42;;;;;;;2.90;1.00;;;;;;;;;;10448551;28;20055;-76
2022/06/08 14:37:42;;;;;;;2.05;1.20;;;;;;;;;;10498814;28;20064;-74
2022/06/08 14:42:43;;;;;;;1.65;1.08;;;;;;;;;;10490389;28;20048;-75
2022/06/08 14:47:43;;;;;;;2.22;1.15;;;;;;;;;;10497242;28;20045;-76
2022/06/08 14:52:45;;;;;;;1.92;1.00;;;;;;;;;;10444501;28;20156;-76
2022/06/08 14:57:48;;;;;;;2.45;1.20;;;;;;;;;;10477872;28;20057;-76
2022/06/08 15:02:48;;;;;;;2.00;1.10;;;;;;;;;;10467779;28;20387;-74
2022/06/08 15:07:50;;;;;;;2.55;1.48;;;;;;;;;;10463894;28;20050;-74
2022/06/08 15:12:51;;;;;;;2.83;1.40;;;;;;;;;;10473100;28;20044;-73
2022/06/08 15:17:53;;;;;;;1.70;1.10;;;;;;;;;;10466499;28;20036;-74
2022/06/08 15:22:55;;;;;;;3.45;1.40;;;;;;;;;;10472166;28;20045;-74
2022/06/08 15:27:57;;;;;;;1.90;1.20;;;;;;;;;;10473313;28;20045;-75
2022/06/08 15:33:01;;;;;;;1.33;1.00;;;;;;;;;;10478320;28;20095;-73
2022/06/08 15:38:04;;;;;;;2.38;1.73;;;;;;;;;;10473603;28;20040;-74
2022/06/08 15:43:05;;;;;;;1.38;1.20;;;;;;;;;;10472886;28;20110;-75
2022/06/08 15:48:09;;;;;;;1.90;0.93;;;;;;;;;;10483578;28;20040;-74
2022/06/08 15:53:13;;;;;;;1.83;1.08;;;;;;;;;;10469834;28;20451;-72
2022/06/08 15:58:17;;;;;;;1.40;1.00;;;;;;;;;;10429562;28;20593;-72
2022/06/08 16:03:17;;;;;;;2.40;1.17;;;;;;;;;;10470750;28;20051;-73
2022/06/08 16:08:18;;;;;;;1.60;1.15;;;;;;;;;;10478097;28;20668;-75
2022/06/08 16:13:18;;;;;;;2.72;1.58;;;;;;;;;;10473608;28;20057;-73
2022/06/08 16:18:18;;;;;;;3.63;1.58;;;;;;;;;;10470823;28;20048;-73
2022/06/08 16:23:19;;;;;;;3.40;1.60;;;;;;;;;;10469511;28;20445;-74
2022/06/08 16:28:19;;;;;;;2.73;1.27;;;;;;;;;;10448268;28;20302;-73
2022/06/08 16:33:21;;;;;;;3.47;1.27;;;;;;;;;;10484982;28;20067;-75
2022/06/08 16:38:21;;;;;;;3.13;1.17;;;;;;;;;;10482394;28;20044;-74
2022/06/08 16:43:22;;;;;;;1.80;1.30;;;;;;;;;;10466837;28;20052;-72
2022/06/08 16:48:23;;;;;;;3.45;1.65;;;;;;;;;;10472395;28;20064;-73
2022/06/08 16:53:24;;;;;;;2.92;1.50;;;;;;;;;;10465994;28;20052;-73
2022/06/08 17:03:43;;;;;;;2.13;1.70;;;;;;;;;;10464557;28;20096;-73
2022/06/08 17:08:44;;;;;;;2.55;1.33;;;;;;;;;;10476549;28;20060;-75
2022/06/08 17:13:44;;;;;;;1.80;1.58;;;;;;;;;;10444647;28;20064;-73
2022/06/08 17:18:45;;;;;;;2.92;1.50;;;;;;;;;;10465976;28;20037;-75
2022/06/08 17:23:45;;;;;;;1.90;1.30;;;;;;;;;;10447977;28;20045;-72
2022/06/08 17:28:47;;;;;;;2.03;1.40;;;;;;;;;;10434205;28;20060;-71
2022/06/08 17:33:48;;;;;;;8.45;7.28;;;;;;;;;;10447346;28;20052;-73
2022/06/08 17:38:49;;;;;;;4.05;2.33;;;;;;;;;;10450627;28;20051;-72
2022/06/08 17:43:51;;;;;;;3.05;1.30;;;;;;;;;;10465230;28;20465;-74
2022/06/08 17:48:52;;;;;;;1.42;1.30;;;;;;;;;;10464525;28;20471;-77
2022/06/08 17:53:52;;;;;;;3.55;1.40;;;;;;;;;;10473394;28;20052;-74
2022/06/08 17:58:54;;;;;;;1.83;1.40;;;;;;;;;;10435044;28;20057;-74
2022/06/08 18:03:54;;;;;;;2.03;1.40;;;;;;;;;;10457342;28;20422;-74
2022/06/08 18:08:55;;;;;;;3.57;1.73;;;;;;;;;;10469356;28;20290;-74
2022/06/08 18:13:55;;;;;;;4.27;2.23;;;;;;;;;;10438411;28;20049;-75
2022/06/08 18:18:57;;;;;;;3.78;2.40;;;;;;;;;;10475974;28;20310;-71
2022/06/08 18:23:58;;;;;;;4.20;1.67;;;;;;;;;;10447789;28;20056;-74
2022/06/08 18:28:58;;;;;;;2.10;1.57;;;;;;;;;;10447636;28;20045;-70
2022/06/08 18:33:59;;;;;;;7.93;4.82;;;;;;;;;;10460279;28;20275;-77
2022/06/08 18:39:00;;;;;;;3.50;1.80;;;;;;;;;;10487837;28;20444;-79
2022/06/08 18:44:01;;;;;;;2.83;1.85;;;;;;;;;;10474067;28;20041;-77
2022/06/08 18:49:02;;;;;;;5.38;2.00;;;;;;;;;;10469860;28;20044;-77
2022/06/08 18:54:04;;;;;;;4.82;2.20;;;;;;;;;;10470314;28;20049;-77
2022/06/08 18:59:04;;;;;;;5.33;2.10;;;;;;;;;;10478020;28;20045;-78
2022/06/08 19:04:05;;;;;;;5.30;2.50;;;;;;;;;;10445817;28;20049;-78
2022/06/08 19:09:06;;;;;;;3.78;2.28;;;;;;;;;;10467715;28;20310;-76
2022/06/08 19:14:06;;;;;;;6.18;2.13;;;;;;;;;;10476312;28;20060;-79
2022/06/08 19:24:27;;;;;;;4.00;2.28;;;;;;;;;;10437128;28;20048;-78
2022/06/08 19:29:27;;;;;;;6.57;3.90;;;;;;;;;;10447833;28;20047;-77
2022/06/08 19:34:27;;;;;;;5.15;2.30;;;;;;;;;;10470071;28;20662;-75
2022/06/08 19:39:28;;;;;;;4.60;2.63;;;;;;;;;;10469565;28;20054;-77
2022/06/08 19:44:28;;;;;;;7.20;3.00;;;;;;;;;;10453949;28;20271;-75
2022/06/08 19:49:29;;;;;;;5.38;2.75;;;;;;;;;;10472572;28;20784;-76
2022/06/08 19:54:30;;;;;;;4.75;2.45;;;;;;;;;;10482052;28;20057;-76
2022/06/08 19:59:30;;;;;;;5.47;2.85;;;;;;;;;;10480756;28;20048;-76
2022/06/08 20:04:31;;;;;;;5.20;2.13;;;;;;;;;;10466947;28;20130;-75
2022/06/08 20:09:32;;;;;;;3.30;2.20;;;;;;;;;;10451686;28;20113;-76
2022/06/08 20:14:32;;;;;;;5.97;2.40;;;;;;;;;;10467381;28;20400;-76
2022/06/08 20:19:34;;;;;;;4.40;2.73;;;;;;;;;;10475281;28;20120;-75
2022/06/08 20:24:35;;;;;;;6.53;2.60;;;;;;;;;;10430523;28;20052;-76
2022/06/08 20:29:35;;;;;;;5.30;2.97;;;;;;;;;;10435568;28;20048;-73
2022/06/08 20:34:36;;;;;;;3.60;2.10;;;;;;;;;;10450021;28;20075;-75
2022/06/08 20:39:36;;;;;;;3.90;2.40;;;;;;;;;;10462729;28;20052;-71
2022/06/08 20:44:38;;;;;;;3.65;2.15;;;;;;;;;;10468749;28;20263;-72
2022/06/08 20:49:40;;;;;;;4.53;2.90;;;;;;;;;;10450442;28;20383;-72
2022/06/08 20:54:41;;;;;;;4.43;2.50;;;;;;;;;;10468797;28;20768;-72
2022/06/08 20:59:41;;;;;;;3.63;2.35;;;;;;;;;;10433769;28;20037;-74
2022/06/08 21:04:42;;;;;;;4.43;3.05;;;;;;;;;;10469576;28;20045;-72
2022/06/08 21:09:43;;;;;;;3.80;2.75;;;;;;;;;;10458647;28;20040;-71
2022/06/08 21:14:43;;;;;;;3.78;2.85;;;;;;;;;;10459927;28;20056;-72
2022/06/08 21:19:43;;;;;;;3.95;2.95;;;;;;;;;;10437346;28;20041;-72
2022/06/08 21:24:44;;;;;;;3.35;2.30;;;;;;;;;;10439653;28;20044;-72
2022/06/08 21:29:44;;;;;;;3.47;2.47;;;;;;;;;;10443554;28;20045;-72
2022/06/08 21:34:45;;;;;;;4.63;2.37;;;;;;;;;;10439834;28;20290;-76
2022/06/08 21:39:45;;;;;;;6.45;3.47;;;;;;;;;;10457967;28;20033;-71
2022/06/08 21:44:46;;;;;;;3.43;2.70;;;;;;;;;;10466394;28;20079;-70
2022/06/08 21:49:47;;;;;;;4.95;2.75;;;;;;;;;;10474387;28;20048;-72
2022/06/08 21:54:47;;;;;;;3.25;2.00;;;;;;;;;;10453763;28;20052;-71
2022/06/08 21:59:48;;;;;;;3.28;2.58;;;;;;;;;;10471541;28;20044;-72
2022/06/08 22:04:53;;;;;;;3.30;2.28;;;;;;;;;;10466912;28;20150;-72
2022/06/08 22:09:53;;;;;;;3.72;2.35;;;;;;;;;;10489392;28;20051;-74
2022/06/08 22:14:54;;;;;;;6.32;2.78;;;;;;;;;;10499056;28;20068;-75
2022/06/08 22:19:54;;;;;;;2.73;2.47;;;;;;;;;;10495725;28;20048;-75
2022/06/08 22:24:55;;;;;;;3.70;2.55;;;;;;;;;;10453658;28;20292;-75
2022/06/08 22:29:56;;;;;;;4.05;2.60;;;;;;;;;;10488539;28;20067;-73
2022/06/08 22:34:56;;;;;;;3.03;2.47;;;;;;;;;;10466660;28;20048;-74
2022/06/08 22:39:57;;;;;;;7.57;3.60;;;;;;;;;;10474280;28;20472;-75
2022/06/08 22:44:57;;;;;;;3.92;2.80;;;;;;;;;;10469706;28;20682;-75
2022/06/08 22:49:58;;;;;;;5.20;3.03;;;;;;;;;;10452704;28;20057;-75
2022/06/08 22:54:58;;;;;;;6.03;3.07;;;;;;;;;;10531237;28;20334;-75
2022/06/08 22:59:59;;;;;;;3.83;2.75;;;;;;;;;;10509813;28;20039;-77
2022/06/08 23:05:00;;;;;;;3.22;2.75;;;;;;;;;;10510136;28;20037;-74
2022/06/08 23:10:00;;;;;;;4.43;2.40;;;;;;;;;;10472877;28;20049;-75
2022/06/08 23:15:01;;;;;;;4.53;2.95;;;;;;;;;;10454832;28;20091;-76
2022/06/08 23:25:21;;;;;;;4.53;2.95;;;;;;;;;;10502746;28;20075;-77
2022/06/08 23:30:21;;;;;;;6.90;3.92;;;;;;;;;;10492950;28;20106;-75
2022/06/08 23:35:22;;;;;;;3.95;3.17;;;;;;;;;;10463030;28;20530;-75
2022/06/08 23:40:22;;;;;;;6.15;3.70;;;;;;;;;;10468953;28;20045;-75
2022/06/08 23:45:23;;;;;;;4.40;2.90;;;;;;;;;;10460262;28;20049;-75
2022/06/08 23:55:42;;;;;;;5.05;4.10;;;;;;;;;;10444432;28;20483;-75
